Florence Spirit — CFBC — position and weather

sailwx.info

Track history (hours):
 
Tides and Currents Weather Stations Pressure Air Temp Water Temp Dewpoint Dewpoint Depression Visibility Wind Speed Wind Dir Waves Ship Positions

Florence Spirit

Last reported at 2018-Jun-21 16:36 UTC. Time now 2018-Jul-17 01:42 UTC.
Position N 45°14' W 074°13'.
Warning: this ship's position is 25 days out of date.

Length 136 m; draft 8 m.

Type: Cargo ship. MMSI: 316001940.

Date/timePositionNaut miles runAvg speedWind from/ knotsBaromVisibWave heightAir tempDewpointWater temp
2018-Jun-21 16:36N 45°14' W 074°13'2 9.2
2018-Jun-21 16:26N 45°14' W 074°11'6 8.6
2018-Jun-21 15:44N 45°13' W 074°02'2 8.3
2018-Jun-21 15:30N 45°14' W 073°60'4 7.3
2018-Jun-21 14:58N 45°17' W 073°56'1 2.6
2018-Jun-21 14:30N 45°18' W 073°56'1 1.6
2018-Jun-21 14:00N 45°19' W 073°55'0 0.1
2018-Jun-21 13:30N 45°19' W 073°55'0 0.0
2018-Jun-21 13:00N 45°19' W 073°55'1 1.3
2018-Jun-21 12:30N 45°20' W 073°55'4 7.5
2018-Jun-21 12:00N 45°22' W 073°50'510.4
2018-Jun-21 11:30N 45°24' W 073°44'3 6.2
2018-Jun-21 11:00N 45°25' W 073°40'3 5.1
2018-Jun-21 10:30N 45°24' W 073°36'1 2.9
2018-Jun-21 10:00N 45°24' W 073°34'1 1.1
2018-Jun-21 09:30N 45°24' W 073°33'2 4.6
2018-Jun-21 09:00N 45°26' W 073°30'3 6.2
2018-Jun-21 08:30N 45°29' W 073°31'1 2.0
2018-Jun-21 08:00N 45°30' W 073°31'0 0.8
2018-Jun-21 07:30N 45°30' W 073°31'4 3.1
2018-Jun-21 06:09N 45°34' W 073°31'6 7.5
2018-Jun-21 05:24N 45°40' W 073°28'410.1
2018-Jun-21 05:00N 45°43' W 073°26'510.3
2018-Jun-21 04:30N 45°47' W 073°21'510.5
2018-Jun-21 04:00N 45°51' W 073°16'510.1
2018-Jun-21 03:30N 45°56' W 073°13'510.5
2018-Jun-21 03:00N 46°01' W 073°11'5 9.3
2018-Jun-21 02:30N 46°04' W 073°05'  
2018-Jun-18 18:37N 46°04' W 073°02'214.2
2018-Jun-18 18:30N 46°04' W 073°05'611.3
2018-Jun-18 18:01N 45°60' W 073°11'713.5
2018-Jun-18 17:31N 45°54' W 073°14'714.1
2018-Jun-18 17:01N 45°48' W 073°20'714.0
2018-Jun-18 16:29N 45°42' W 073°27'20 4.0
2018-Jun-18 11:34N 45°24' W 073°38'0 5.6
2018-Jun-18 11:30N 45°24' W 073°39'2 3.4
2018-Jun-18 11:00N 45°25' W 073°41'3 6.1
2018-Jun-18 10:30N 45°24' W 073°45'611.7
2018-Jun-18 10:00N 45°21' W 073°52'3 5.9
2018-Jun-18 09:30N 45°19' W 073°55'1 1.3
2018-Jun-18 09:00N 45°18' W 073°55'0 0.5
2018-Jun-18 08:30N 45°18' W 073°56'0 1.0
2018-Jun-18 08:00N 45°18' W 073°56'1 2.2
2018-Jun-18 07:30N 45°17' W 073°57'3 6.1
2018-Jun-18 06:58N 45°14' W 073°60'6 9.6
2018-Jun-18 06:23N 45°14' W 074°08'  
Track history (hours):
 
Tides and Currents Weather Stations Pressure Air Temp Water Temp Dewpoint Dewpoint Depression Visibility Wind Speed Wind Dir Waves Ship Positions

Florence Spirit

Last reported at 2018-Jun-21 16:36 UTC. Time now 2018-Jul-17 01:42 UTC.
Position N 45°14' W 074°13'.
Warning: this ship's position is 25 days out of date.

Length 136 m; draft 8 m.

Type: Cargo ship. MMSI: 316001940.

Date/timePositionNaut miles runAvg speedWind from/ knotsBaromVisibWave heightAir tempDewpointWater temp
2018-Jun-21 16:36N 45°14' W 074°13'2 9.2
2018-Jun-21 16:26N 45°14' W 074°11'6 8.6
2018-Jun-21 15:44N 45°13' W 074°02'2 8.3
2018-Jun-21 15:30N 45°14' W 073°60'4 7.3
2018-Jun-21 14:58N 45°17' W 073°56'1 2.6
2018-Jun-21 14:30N 45°18' W 073°56'1 1.6
2018-Jun-21 14:00N 45°19' W 073°55'0 0.1
2018-Jun-21 13:30N 45°19' W 073°55'0 0.0
2018-Jun-21 13:00N 45°19' W 073°55'1 1.3
2018-Jun-21 12:30N 45°20' W 073°55'4 7.5
2018-Jun-21 12:00N 45°22' W 073°50'510.4
2018-Jun-21 11:30N 45°24' W 073°44'3 6.2
2018-Jun-21 11:00N 45°25' W 073°40'3 5.1
2018-Jun-21 10:30N 45°24' W 073°36'1 2.9
2018-Jun-21 10:00N 45°24' W 073°34'1 1.1
2018-Jun-21 09:30N 45°24' W 073°33'2 4.6
2018-Jun-21 09:00N 45°26' W 073°30'3 6.2
2018-Jun-21 08:30N 45°29' W 073°31'1 2.0
2018-Jun-21 08:00N 45°30' W 073°31'0 0.8
2018-Jun-21 07:30N 45°30' W 073°31'4 3.1
2018-Jun-21 06:09N 45°34' W 073°31'6 7.5
2018-Jun-21 05:24N 45°40' W 073°28'410.1
2018-Jun-21 05:00N 45°43' W 073°26'510.3
2018-Jun-21 04:30N 45°47' W 073°21'510.5
2018-Jun-21 04:00N 45°51' W 073°16'510.1
2018-Jun-21 03:30N 45°56' W 073°13'510.5
2018-Jun-21 03:00N 46°01' W 073°11'5 9.3
2018-Jun-21 02:30N 46°04' W 073°05'  
2018-Jun-18 18:37N 46°04' W 073°02'214.2
2018-Jun-18 18:30N 46°04' W 073°05'611.3
2018-Jun-18 18:01N 45°60' W 073°11'713.5
2018-Jun-18 17:31N 45°54' W 073°14'714.1
2018-Jun-18 17:01N 45°48' W 073°20'714.0
2018-Jun-18 16:29N 45°42' W 073°27'20 4.0
2018-Jun-18 11:34N 45°24' W 073°38'0 5.6
2018-Jun-18 11:30N 45°24' W 073°39'2 3.4
2018-Jun-18 11:00N 45°25' W 073°41'3 6.1
2018-Jun-18 10:30N 45°24' W 073°45'611.7
2018-Jun-18 10:00N 45°21' W 073°52'3 5.9
2018-Jun-18 09:30N 45°19' W 073°55'1 1.3
2018-Jun-18 09:00N 45°18' W 073°55'0 0.5
2018-Jun-18 08:30N 45°18' W 073°56'0 1.0
2018-Jun-18 08:00N 45°18' W 073°56'1 2.2
2018-Jun-18 07:30N 45°17' W 073°57'3 6.1
2018-Jun-18 06:58N 45°14' W 073°60'6 9.6
2018-Jun-18 06:23N 45°14' W 074°08'  

Dump ship's entire track history